METAR Data
IDs: Format: Raw Decoded Include TAF

Data at: 1206 UTC 23 Sep 2018

KDCU 231153Z AUTO 00000KT 8SM CLR 22/22 A3001 RMK AO2 SLP156 70005 T02220217 10222 20217 53003
KDCU 231053Z AUTO 04003KT 10SM CLR 22/22 A3000 RMK AO2 SLP153 T02220217
KDCU 230953Z AUTO 00000KT 9SM CLR 22/22 A3000 RMK AO2 SLP151 T02170217
KDCU 230853Z AUTO 00000KT 10SM FEW110 22/22 A3001 RMK AO2 SLP153 T02170217 56005
KDCU 230753Z AUTO 00000KT 10SM FEW055 FEW120 22/22 A3001 RMK AO2 SLP154 T02220217
KDCU 230653Z AUTO 00000KT 10SM FEW049 22/22 A3002 RMK AO2 SLP158 T02170217
KDCU 230617Z AUTO 36003KT 10SM FEW009 SCT060 BKN075 22/22 A3002 RMK AO2 T02220217
KDCU 230553Z AUTO 00000KT 10SM SCT055 SCT070 BKN110 22/22 A3002 RMK AO2 SLP159 60001 T02220217 10256 20222 403170211 58011
KDCU 230453Z AUTO 00000KT 10SM BKN120 23/22 A3003 RMK AO2 SLP161 T02280222
KDCU 230353Z AUTO 00000KT 10SM BKN110 23/22 A3005 RMK AO2 SLP168 T02280222
KDCU 230253Z AUTO 01003KT 10SM OVC110 23/23 A3006 RMK AO2 SLP170 60001 T02330228 51019
KDCU 230153Z AUTO 35007KT 10SM FEW110 23/23 A3004 RMK AO2 LTG DSNT NE SLP165 P0001 T02330228
KDCU 230053Z AUTO 35009KT 10SM FEW033 FEW070 OVC110 24/23 A3002 RMK AO2 LTG DSNT N RAE25 SLP160 P0000 T02440233
KDCU 230039Z AUTO 34010KT 9SM FEW033 SCT065 OVC110 25/23 A3002 RMK AO2 LTG DSNT N AND NW RAE25 P0000 T02500233
KDCU 230024Z AUTO 01003KT 10SM VCTS -RA FEW035 BKN065 OVC090 26/24 A3001 RMK AO2 LTG DSNT N P0000 T02560239
KDCU 222353Z AUTO 04007KT 8SM -RA SCT060 BKN075 OVC090 26/23 A3000 RMK AO2 LTG DSNT NW RAB34 SLP151 P0000 60002 T02560233 10306 20244 53010
KDCU 222253Z AUTO 35004KT 10SM OVC100 28/23 A2998 RMK AO2 SLP145 T02780228
KDCU 222153Z AUTO VRB04KT 10SM FEW070 30/23 A2997 RMK AO2 SLP140 T03000228
KDCU 222053Z AUTO 00000KT 10SM BKN100 30/22 A2997 RMK AO2 SLP140 60002 T03000217 58030
KDCU 221953Z AUTO VRB06KT 10SM FEW036 SCT080 BKN100 27/23 A2999 RMK AO2 RAE36 SLP148 P0001 T02670233
KDCU 221853Z AUTO 32009KT 4SM -RA BR SCT065 OVC085 24/23 A3003 RMK AO2 LTG DSNT N RAE1754B15 SLP163 P0001 T02440233
KDCU 221753Z AUTO 29003KT 10SM -RA SCT042 BKN070 OVC090 27/23 A3006 RMK AO2 RAB19 SLP171 P0002 60002 T02670233 10317 20217 58013
KDCU 221653Z AUTO VRB03KT 10SM FEW036 31/22 A3007 RMK AO2 SLP174 T03110217
KDCU 221553Z AUTO VRB04KT 10SM FEW043 29/22 A3009 RMK AO2 SLP182 T02940217
KDCU 221453Z AUTO 19004KT 10SM SCT043 BKN055 28/22 A3010 RMK AO2 SLP183 T02780217 53004
KDCU 221353Z AUTO 12003KT 10SM CLR 26/22 A3009 RMK AO2 SLP181 T02610222
KDCU 221253Z AUTO 00000KT 7SM FEW050 23/22 A3009 RMK AO2 SLP182 T02330222
KDCU 221153Z AUTO 09004KT 4SM BR FEW085 BKN110 22/21 A3008 RMK AO2 SLP180 70004 T02170211 10233 20211 53005
KDCU 221053Z AUTO 01004KT 6SM BR FEW050 21/21 A3007 RMK AO2 SLP175 T02110211
KDCU 220953Z AUTO 00000KT 9SM SCT055 23/22 A3007 RMK AO2 SLP173 T02280222
KDCU 220853Z AUTO 00000KT 7SM CLR 21/21 A3007 RMK AO2 SLP174 T02110206 58012
KDCU 220753Z AUTO 01003KT 10SM CLR 22/22 A3008 RMK AO2 SLP178 T02220217
KDCU 220653Z AUTO 02004KT 10SM BKN070 23/22 A3009 RMK AO2 SLP183 T02330222
KDCU 220553Z AUTO 36005KT 9SM SCT090 BKN100 24/23 A3010 RMK AO2 SLP186 T02390228 10283 20239 403330222 50003
KDCU 220453Z AUTO 04003KT 10SM OVC060 24/23 A3011 RMK AO2 SLP189 T02440228
KDCU 220353Z AUTO 14004KT 10SM FEW050 SCT065 BKN080 25/22 A3011 RMK AO2 SLP188 T02500222
KDCU 220253Z AUTO 14004KT 10SM CLR 24/22 A3009 RMK AO2 SLP183 T02390222 51018
KDCU 220153Z AUTO 10003KT 10SM CLR 26/22 A3009 RMK AO2 SLP180 T02560222
KDCU 220053Z AUTO 13006KT 10SM CLR 27/22 A3006 RMK AO2 SLP171 T02720222